createdAt,value
2024-05-09T00:00:18.183Z,8.62
2024-05-09T00:01:15.243Z,8.62
2024-05-09T00:01:48.651Z,8.62
2024-05-09T00:02:21.740Z,8.60
2024-05-09T00:02:55.006Z,8.59
2024-05-09T00:03:28.160Z,8.57
2024-05-09T00:04:01.477Z,8.56
2024-05-09T00:04:34.522Z,8.55
2024-05-09T00:05:10.727Z,8.53
2024-05-09T00:05:44.588Z,8.52
2024-05-09T00:06:17.832Z,8.51
2024-05-09T00:06:50.937Z,8.50
2024-05-09T00:07:23.937Z,8.50
2024-05-09T00:07:57.101Z,8.48
2024-05-09T00:08:30.371Z,8.47
2024-05-09T00:09:03.995Z,8.46
2024-05-09T00:09:37.878Z,8.45
2024-05-09T00:10:18.266Z,8.44
2024-05-09T00:10:58.495Z,8.43
2024-05-09T00:11:31.500Z,8.42
2024-05-09T00:12:04.815Z,8.41
2024-05-09T00:12:38.104Z,8.40
2024-05-09T00:13:11.572Z,8.38
2024-05-09T00:13:44.450Z,8.37
2024-05-09T00:14:17.693Z,8.37
2024-05-09T00:14:50.828Z,8.36
2024-05-09T00:15:23.979Z,8.35
2024-05-09T00:15:57.428Z,8.34
2024-05-09T00:16:30.312Z,8.33
2024-05-09T00:17:03.565Z,8.32
2024-05-09T00:17:36.744Z,8.31
2024-05-09T00:18:09.881Z,8.31
2024-05-09T00:18:43.361Z,8.29
2024-05-09T00:19:16.660Z,8.28
2024-05-09T00:19:49.880Z,8.27
2024-05-09T00:20:28.562Z,8.28
2024-05-09T00:21:10.040Z,8.27
2024-05-09T00:21:43.779Z,8.27
2024-05-09T00:22:17.131Z,8.27
2024-05-09T00:22:50.261Z,8.26
2024-05-09T00:23:23.349Z,8.25
2024-05-09T00:23:56.461Z,8.25
2024-05-09T00:24:29.411Z,8.24
2024-05-09T00:25:02.552Z,8.24
2024-05-09T00:25:35.814Z,8.24
2024-05-09T00:26:08.930Z,8.23
2024-05-09T00:26:42.090Z,8.22
2024-05-09T00:27:16.024Z,8.22
2024-05-09T00:27:49.031Z,8.21
2024-05-09T00:28:22.337Z,8.20
2024-05-09T00:28:55.702Z,8.20
2024-05-09T00:29:28.961Z,8.19
2024-05-09T00:30:04.031Z,8.17
2024-05-09T00:30:37.649Z,8.17
2024-05-09T00:31:11.037Z,8.16
2024-05-09T00:31:44.311Z,8.16
2024-05-09T00:32:17.668Z,8.15
2024-05-09T00:32:50.988Z,8.16
2024-05-09T00:33:24.769Z,8.14
2024-05-09T00:33:58.231Z,8.14
2024-05-09T00:34:31.343Z,8.13
2024-05-09T00:35:04.717Z,8.14
2024-05-09T00:35:38.149Z,8.13
2024-05-09T00:36:11.516Z,8.14
2024-05-09T00:36:44.600Z,8.13
2024-05-09T00:37:18.018Z,8.14
2024-05-09T00:37:51.140Z,8.13
2024-05-09T00:38:24.268Z,8.13
2024-05-09T00:38:57.447Z,8.13
2024-05-09T00:39:30.585Z,8.13
2024-05-09T00:40:05.796Z,8.12
2024-05-09T00:40:43.162Z,8.12
2024-05-09T00:41:19.743Z,8.11
2024-05-09T00:41:53.164Z,8.12
2024-05-09T00:42:26.238Z,8.11
2024-05-09T00:42:59.242Z,8.11
2024-05-09T00:43:32.821Z,8.09
2024-05-09T00:44:05.989Z,8.08
2024-05-09T00:44:39.059Z,8.08
2024-05-09T00:45:12.222Z,8.05
2024-05-09T00:45:46.021Z,8.04
2024-05-09T00:46:19.291Z,8.03
2024-05-09T00:46:55.490Z,8.02
2024-05-09T00:47:28.794Z,8.01
2024-05-09T00:48:06.668Z,8.00
2024-05-09T00:48:41.424Z,8.00
2024-05-09T00:49:15.055Z,7.98
2024-05-09T00:49:48.881Z,7.97
2024-05-09T00:50:29.893Z,7.97
2024-05-09T00:51:09.630Z,7.96
2024-05-09T00:51:43.098Z,7.97
2024-05-09T00:52:16.547Z,7.98
2024-05-09T00:52:50.264Z,7.97
2024-05-09T00:53:24.459Z,7.96
2024-05-09T00:53:57.974Z,7.97
2024-05-09T00:54:31.096Z,7.97
2024-05-09T00:55:04.649Z,7.97
2024-05-09T00:55:39.130Z,7.97
2024-05-09T00:56:13.153Z,7.97
2024-05-09T00:56:46.439Z,7.96
2024-05-09T00:57:19.571Z,7.96
2024-05-09T00:57:53.037Z,7.96
2024-05-09T00:58:29.632Z,7.96
2024-05-09T00:59:03.290Z,7.95
2024-05-09T00:59:36.433Z,7.93
2024-05-09T01:00:22.324Z,7.92
2024-05-09T01:01:04.493Z,7.92
2024-05-09T01:01:37.797Z,7.92
2024-05-09T01:02:11.615Z,7.90
2024-05-09T01:02:44.988Z,7.90
2024-05-09T01:03:18.472Z,7.89
2024-05-09T01:03:52.617Z,7.88
2024-05-09T01:04:25.775Z,7.88
2024-05-09T01:04:59.486Z,7.88
2024-05-09T01:05:32.897Z,7.87
2024-05-09T01:06:06.150Z,7.88
2024-05-09T01:06:39.447Z,7.87
2024-05-09T01:07:12.884Z,7.88
2024-05-09T01:07:45.766Z,7.88
2024-05-09T01:08:18.850Z,7.89
2024-05-09T01:08:52.178Z,7.89
2024-05-09T01:09:25.011Z,7.88
2024-05-09T01:09:58.061Z,7.88
2024-05-09T01:10:34.839Z,7.88
2024-05-09T01:11:09.536Z,7.88
2024-05-09T01:11:42.806Z,7.88
2024-05-09T01:12:15.995Z,7.88
2024-05-09T01:12:49.820Z,7.88
2024-05-09T01:13:23.004Z,7.88
2024-05-09T01:13:56.274Z,7.87
2024-05-09T01:14:29.312Z,7.86
2024-05-09T01:15:02.396Z,7.86
2024-05-09T01:15:36.100Z,7.86
2024-05-09T01:16:09.342Z,7.86
2024-05-09T01:16:42.634Z,7.85
2024-05-09T01:17:16.215Z,7.84
2024-05-09T01:17:49.714Z,7.84
2024-05-09T01:18:23.143Z,7.84
2024-05-09T01:18:56.956Z,7.82
2024-05-09T01:19:31.777Z,7.83
2024-05-09T01:20:06.440Z,7.82
2024-05-09T01:20:45.190Z,7.81
2024-05-09T01:21:18.915Z,7.81
2024-05-09T01:21:52.050Z,7.80
2024-05-09T01:22:27.816Z,7.79
2024-05-09T01:23:06.779Z,7.80
2024-05-09T01:23:40.226Z,7.79
2024-05-09T01:24:13.441Z,7.80
2024-05-09T01:24:46.595Z,7.80
2024-05-09T01:25:19.561Z,7.79
2024-05-09T01:25:52.692Z,7.80
2024-05-09T01:26:26.042Z,7.80
2024-05-09T01:26:59.521Z,7.80
2024-05-09T01:27:32.644Z,7.81
2024-05-09T01:28:06.538Z,7.81
2024-05-09T01:28:39.722Z,7.81
2024-05-09T01:29:13.146Z,7.82
2024-05-09T01:29:46.270Z,7.82
2024-05-09T01:30:24.342Z,7.82
2024-05-09T01:31:01.347Z,7.82
2024-05-09T01:31:34.468Z,7.82
2024-05-09T01:32:07.690Z,7.82
2024-05-09T01:32:41.008Z,7.83
2024-05-09T01:33:14.820Z,7.83
2024-05-09T01:33:47.945Z,7.82
2024-05-09T01:34:21.370Z,7.82
2024-05-09T01:34:54.486Z,7.81
2024-05-09T01:35:27.769Z,7.81
2024-05-09T01:36:01.043Z,7.81
2024-05-09T01:36:33.926Z,7.81
2024-05-09T01:37:07.134Z,7.80
2024-05-09T01:37:40.425Z,7.81
2024-05-09T01:38:14.220Z,7.81
2024-05-09T01:38:47.480Z,7.81
2024-05-09T01:39:20.631Z,7.82
2024-05-09T01:39:53.733Z,7.82
2024-05-09T01:40:36.239Z,7.82
2024-05-09T01:41:12.171Z,7.84
2024-05-09T01:41:45.055Z,7.84
2024-05-09T01:42:18.183Z,7.85
2024-05-09T01:42:51.261Z,7.84
2024-05-09T01:43:24.284Z,7.84
2024-05-09T01:43:57.433Z,7.84
2024-05-09T01:44:30.584Z,7.85
2024-05-09T01:45:03.992Z,7.84
2024-05-09T01:45:37.098Z,7.84
2024-05-09T01:46:16.978Z,7.86
2024-05-09T01:46:50.126Z,7.86
2024-05-09T01:47:23.484Z,7.86
2024-05-09T01:47:57.140Z,7.86
2024-05-09T01:48:30.369Z,7.87
2024-05-09T01:49:04.592Z,7.87
2024-05-09T01:49:38.262Z,7.86
2024-05-09T01:50:11.600Z,7.87
2024-05-09T01:50:49.476Z,7.88
2024-05-09T01:51:22.499Z,7.89
2024-05-09T01:51:55.620Z,7.89
2024-05-09T01:52:28.765Z,7.90
2024-05-09T01:53:01.981Z,7.90
2024-05-09T01:53:35.232Z,7.90
2024-05-09T01:54:08.519Z,7.90
2024-05-09T01:54:41.540Z,7.91
2024-05-09T01:55:14.739Z,7.91
2024-05-09T01:55:47.822Z,7.91
2024-05-09T01:56:20.954Z,7.90
2024-05-09T01:56:54.203Z,7.91
2024-05-09T01:57:27.172Z,7.92
2024-05-09T01:58:00.204Z,7.91
2024-05-09T01:58:33.474Z,7.91
2024-05-09T01:59:07.620Z,7.91
2024-05-09T01:59:40.787Z,7.92
2024-05-09T02:00:18.833Z,7.92
2024-05-09T02:00:58.950Z,7.91
2024-05-09T02:01:55.356Z,7.92
2024-05-09T02:02:25.353Z,7.92
2024-05-09T02:02:58.797Z,7.93
2024-05-09T02:03:32.196Z,7.92
2024-05-09T02:04:05.862Z,7.91
2024-05-09T02:04:39.519Z,7.91
2024-05-09T02:05:12.945Z,7.91
2024-05-09T02:05:48.127Z,7.90
2024-05-09T02:06:21.652Z,7.90
2024-05-09T02:06:54.607Z,7.90
2024-05-09T02:07:27.579Z,7.88
2024-05-09T02:08:00.784Z,7.88
2024-05-09T02:08:34.018Z,7.88
2024-05-09T02:09:07.462Z,7.88
2024-05-09T02:09:40.372Z,7.87
2024-05-09T02:10:20.194Z,7.87
2024-05-09T02:10:56.610Z,7.87
2024-05-09T02:11:30.467Z,7.87
2024-05-09T02:12:03.979Z,7.86
2024-05-09T02:12:37.252Z,7.86
2024-05-09T02:13:10.561Z,7.85
2024-05-09T02:13:43.472Z,7.84
2024-05-09T02:14:18.389Z,7.85
2024-05-09T02:14:51.944Z,7.84
2024-05-09T02:15:25.073Z,7.84
2024-05-09T02:15:59.211Z,7.83
2024-05-09T02:16:32.050Z,7.84
2024-05-09T02:17:05.120Z,7.82
2024-05-09T02:17:38.472Z,7.83
2024-05-09T02:18:12.005Z,7.82
2024-05-09T02:18:45.543Z,7.82
2024-05-09T02:19:18.841Z,7.82
2024-05-09T02:19:52.071Z,7.81
2024-05-09T02:20:33.548Z,7.81
2024-05-09T02:21:09.855Z,7.80
2024-05-09T02:21:42.833Z,7.79
2024-05-09T02:22:15.825Z,7.78
2024-05-09T02:22:48.885Z,7.77
2024-05-09T02:23:22.039Z,7.77
2024-05-09T02:23:55.115Z,7.76
2024-05-09T02:24:28.225Z,7.74
2024-05-09T02:25:01.297Z,7.74
2024-05-09T02:25:34.709Z,7.74
2024-05-09T02:26:08.045Z,7.73
2024-05-09T02:26:41.244Z,7.72
2024-05-09T02:27:14.236Z,7.71
2024-05-09T02:27:47.251Z,7.71
2024-05-09T02:28:23.010Z,7.70
2024-05-09T02:28:56.184Z,7.70
2024-05-09T02:29:29.503Z,7.69
2024-05-09T02:30:02.847Z,7.68
2024-05-09T02:30:40.666Z,7.68
2024-05-09T02:31:15.195Z,7.67
2024-05-09T02:31:48.357Z,7.67
2024-05-09T02:32:21.573Z,7.66
2024-05-09T02:32:54.819Z,7.66
2024-05-09T02:33:28.705Z,7.65
2024-05-09T02:34:02.117Z,7.64
2024-05-09T02:34:35.204Z,7.64
2024-05-09T02:35:08.269Z,7.63
2024-05-09T02:35:42.786Z,7.62
2024-05-09T02:36:16.631Z,7.61
2024-05-09T02:36:49.712Z,7.61
2024-05-09T02:37:22.653Z,7.60
2024-05-09T02:37:55.782Z,7.60
2024-05-09T02:38:28.971Z,7.59
2024-05-09T02:39:01.965Z,7.59
2024-05-09T02:39:34.969Z,7.58
2024-05-09T02:40:14.247Z,7.58
2024-05-09T02:40:47.989Z,7.57
2024-05-09T02:41:21.274Z,7.57
2024-05-09T02:41:54.529Z,7.58
2024-05-09T02:42:27.528Z,7.57
2024-05-09T02:43:01.056Z,7.57
2024-05-09T02:43:34.067Z,7.57
2024-05-09T02:44:07.256Z,7.57
2024-05-09T02:44:40.362Z,7.57
2024-05-09T02:45:13.505Z,7.56
2024-05-09T02:45:46.360Z,7.55
2024-05-09T02:46:19.266Z,7.55
2024-05-09T02:46:52.502Z,7.54
2024-05-09T02:47:25.661Z,7.53
2024-05-09T02:47:59.315Z,7.54
2024-05-09T02:48:32.755Z,7.53
2024-05-09T02:49:06.224Z,7.53
2024-05-09T02:49:39.540Z,7.54
2024-05-09T02:50:46.400Z,7.54
2024-05-09T02:51:19.599Z,7.54
2024-05-09T02:51:52.724Z,7.54
2024-05-09T02:52:25.816Z,7.55
2024-05-09T02:52:59.017Z,7.56
2024-05-09T02:53:32.445Z,7.55
2024-05-09T02:54:07.662Z,7.56
2024-05-09T02:54:40.726Z,7.57
2024-05-09T02:55:14.092Z,7.57
2024-05-09T02:55:47.485Z,7.57
2024-05-09T02:56:20.659Z,7.57
2024-05-09T02:56:53.922Z,7.57
2024-05-09T02:57:26.985Z,7.58
2024-05-09T02:58:00.157Z,7.58
2024-05-09T02:58:33.400Z,7.59
2024-05-09T02:59:06.645Z,7.59
2024-05-09T02:59:39.745Z,7.59
2024-05-09T03:00:19.011Z,7.59
2024-05-09T03:00:58.890Z,7.60
2024-05-09T03:01:32.039Z,7.60
2024-05-09T03:02:05.311Z,7.61
2024-05-09T03:02:38.663Z,7.60
2024-05-09T03:03:14.318Z,7.60
2024-05-09T03:03:51.553Z,7.61
2024-05-09T03:04:24.947Z,7.60
2024-05-09T03:04:58.942Z,7.61
2024-05-09T03:05:32.243Z,7.59
2024-05-09T03:06:05.634Z,7.59
2024-05-09T03:06:44.879Z,7.60
2024-05-09T03:07:20.063Z,7.60
2024-05-09T03:07:53.410Z,7.61
2024-05-09T03:08:28.118Z,7.61
2024-05-09T03:09:01.238Z,7.60
2024-05-09T03:09:34.431Z,7.61
2024-05-09T03:10:18.027Z,7.61
2024-05-09T03:10:55.545Z,7.63
2024-05-09T03:11:28.896Z,7.63
2024-05-09T03:12:02.091Z,7.63
2024-05-09T03:12:37.884Z,7.64
2024-05-09T03:13:15.683Z,7.63
2024-05-09T03:13:53.823Z,7.63
2024-05-09T03:14:26.863Z,7.63
2024-05-09T03:15:00.269Z,7.63
2024-05-09T03:15:33.405Z,7.63
2024-05-09T03:16:06.664Z,7.63
2024-05-09T03:16:39.785Z,7.63
2024-05-09T03:17:13.010Z,7.63
2024-05-09T03:17:46.552Z,7.63
2024-05-09T03:18:20.087Z,7.63
2024-05-09T03:18:55.139Z,7.63
2024-05-09T03:19:28.456Z,7.63
2024-05-09T03:20:04.140Z,7.63
2024-05-09T03:20:39.226Z,7.63
2024-05-09T03:21:12.549Z,7.64
2024-05-09T03:21:45.672Z,7.64
2024-05-09T03:22:18.696Z,7.65
2024-05-09T03:22:54.067Z,7.66
2024-05-09T03:23:28.440Z,7.66
2024-05-09T03:24:01.432Z,7.66
2024-05-09T03:24:34.372Z,7.67
2024-05-09T03:25:07.536Z,7.67
2024-05-09T03:25:40.851Z,7.67
2024-05-09T03:26:15.264Z,7.68
2024-05-09T03:26:48.431Z,7.68
2024-05-09T03:27:21.606Z,7.70
2024-05-09T03:27:54.941Z,7.70
2024-05-09T03:28:27.854Z,7.71
2024-05-09T03:29:01.033Z,7.71
2024-05-09T03:29:34.392Z,7.71
2024-05-09T03:30:09.943Z,7.72
2024-05-09T03:30:43.583Z,7.72
2024-05-09T03:31:18.624Z,7.72
2024-05-09T03:31:51.773Z,7.73
2024-05-09T03:32:24.845Z,7.74
2024-05-09T03:32:58.235Z,7.74
2024-05-09T03:33:31.921Z,7.74
2024-05-09T03:34:05.397Z,7.75
2024-05-09T03:34:41.691Z,7.75
2024-05-09T03:35:14.765Z,7.75
2024-05-09T03:35:48.733Z,7.75
2024-05-09T03:36:22.419Z,7.76
2024-05-09T03:36:55.611Z,7.76
2024-05-09T03:37:28.580Z,7.77
2024-05-09T03:38:01.878Z,7.78
2024-05-09T03:38:41.420Z,7.78
2024-05-09T03:39:14.619Z,7.79
2024-05-09T03:39:47.657Z,7.80
2024-05-09T03:40:24.117Z,7.81
2024-05-09T03:40:59.926Z,7.82
2024-05-09T03:41:33.360Z,7.84
2024-05-09T03:42:06.539Z,7.84
2024-05-09T03:42:41.812Z,7.85
2024-05-09T03:43:15.545Z,7.86
2024-05-09T03:43:48.805Z,7.86
2024-05-09T03:44:21.972Z,7.87
2024-05-09T03:44:55.283Z,7.88
2024-05-09T03:45:28.669Z,7.88
2024-05-09T03:46:01.829Z,7.89
2024-05-09T03:46:38.885Z,7.90
2024-05-09T03:47:12.168Z,7.91
2024-05-09T03:47:45.608Z,7.92
2024-05-09T03:48:19.332Z,7.93
2024-05-09T03:48:52.603Z,7.93
2024-05-09T03:49:25.971Z,7.94
2024-05-09T03:49:59.314Z,7.95
2024-05-09T03:50:35.582Z,7.96
2024-05-09T03:51:09.876Z,7.98
2024-05-09T03:51:43.558Z,7.98
2024-05-09T03:52:16.608Z,7.99
2024-05-09T03:52:49.904Z,8.00
2024-05-09T03:53:23.249Z,8.01
2024-05-09T03:53:56.902Z,8.03
2024-05-09T03:54:29.986Z,8.04
2024-05-09T03:55:03.099Z,8.05
2024-05-09T03:55:36.414Z,8.07
2024-05-09T03:56:09.621Z,8.07
2024-05-09T03:56:42.843Z,8.08
2024-05-09T03:57:16.050Z,8.10
2024-05-09T03:57:49.004Z,8.11
2024-05-09T03:58:21.970Z,8.12
2024-05-09T03:58:55.245Z,8.14
2024-05-09T03:59:28.680Z,8.15
2024-05-09T04:00:03.019Z,8.17
2024-05-09T04:00:39.441Z,8.18
2024-05-09T04:01:13.630Z,8.19
2024-05-09T04:01:46.742Z,8.21
2024-05-09T04:02:19.954Z,8.22
2024-05-09T04:02:53.226Z,8.24
2024-05-09T04:03:26.874Z,8.25
2024-05-09T04:04:00.253Z,8.26
2024-05-09T04:04:33.495Z,8.28
2024-05-09T04:05:06.571Z,8.29
2024-05-09T04:05:41.938Z,8.31
2024-05-09T04:06:23.358Z,8.32
2024-05-09T04:06:56.367Z,8.36
2024-05-09T04:07:29.476Z,8.36
2024-05-09T04:08:02.575Z,8.38
2024-05-09T04:08:35.900Z,8.40
2024-05-09T04:09:09.488Z,8.42
2024-05-09T04:09:42.500Z,8.43
2024-05-09T04:10:24.013Z,8.46
2024-05-09T04:11:04.155Z,8.49
2024-05-09T04:11:37.789Z,8.51
2024-05-09T04:12:11.347Z,8.53
2024-05-09T04:12:44.513Z,8.56
2024-05-09T04:13:17.648Z,8.59
2024-05-09T04:13:50.843Z,8.60
2024-05-09T04:14:24.103Z,8.63
2024-05-09T04:14:57.250Z,8.65
2024-05-09T04:15:30.385Z,8.68
2024-05-09T04:16:03.653Z,8.71
2024-05-09T04:16:36.896Z,8.73
2024-05-09T04:17:10.072Z,8.76
2024-05-09T04:17:47.370Z,8.78
2024-05-09T04:18:20.738Z,8.80
2024-05-09T04:18:54.270Z,8.83
2024-05-09T04:19:27.799Z,8.85
2024-05-09T04:20:01.203Z,8.87
2024-05-09T04:20:38.966Z,8.88
2024-05-09T04:21:14.172Z,8.91
2024-05-09T04:21:47.319Z,8.93
2024-05-09T04:22:20.435Z,8.95
2024-05-09T04:22:53.471Z,8.96
2024-05-09T04:23:26.649Z,8.98
2024-05-09T04:23:59.783Z,9.00
2024-05-09T04:24:33.060Z,9.02
2024-05-09T04:25:06.472Z,9.04
2024-05-09T04:25:44.582Z,9.06
2024-05-09T04:26:18.081Z,9.08
2024-05-09T04:26:51.015Z,9.10
2024-05-09T04:27:24.207Z,9.13
2024-05-09T04:27:57.444Z,9.15
2024-05-09T04:28:30.986Z,9.17
2024-05-09T04:29:04.042Z,9.19
2024-05-09T04:29:40.050Z,9.21
2024-05-09T04:30:21.595Z,9.25
2024-05-09T04:31:03.329Z,9.29
2024-05-09T04:31:36.787Z,9.32
2024-05-09T04:32:10.090Z,9.34
2024-05-09T04:32:43.871Z,9.36
2024-05-09T04:33:19.255Z,9.38
2024-05-09T04:33:52.983Z,9.41
2024-05-09T04:34:26.012Z,9.43
2024-05-09T04:34:59.317Z,9.46
2024-05-09T04:35:32.570Z,9.49
2024-05-09T04:36:06.964Z,9.51
2024-05-09T04:36:43.198Z,9.54
2024-05-09T04:37:17.762Z,9.58
2024-05-09T04:37:50.961Z,9.60
2024-05-09T04:38:24.144Z,9.62
2024-05-09T04:38:57.165Z,9.64
2024-05-09T04:39:30.235Z,9.66
2024-05-09T04:40:05.400Z,9.68
2024-05-09T04:40:40.244Z,9.71
2024-05-09T04:41:13.536Z,9.73
2024-05-09T04:41:46.452Z,9.75
2024-05-09T04:42:19.412Z,9.78
2024-05-09T04:42:52.520Z,9.81
2024-05-09T04:43:25.708Z,9.84
2024-05-09T04:43:58.828Z,9.87
2024-05-09T04:44:32.230Z,9.90
2024-05-09T04:45:05.646Z,9.93
2024-05-09T04:45:38.644Z,9.96
2024-05-09T04:46:11.653Z,9.98
2024-05-09T04:46:44.866Z,10.02
2024-05-09T04:47:18.243Z,10.04
2024-05-09T04:47:51.872Z,10.07
2024-05-09T04:48:25.229Z,10.11
2024-05-09T04:48:58.313Z,10.13
2024-05-09T04:49:31.461Z,10.17
2024-05-09T04:50:08.860Z,10.20
2024-05-09T04:50:44.573Z,10.24
2024-05-09T04:51:17.732Z,10.27
2024-05-09T04:51:50.744Z,10.30
2024-05-09T04:52:23.844Z,10.34
2024-05-09T04:52:56.877Z,10.36
2024-05-09T04:53:29.920Z,10.39
2024-05-09T04:54:02.993Z,10.40
2024-05-09T04:54:36.861Z,10.43
2024-05-09T04:55:10.134Z,10.46
2024-05-09T04:55:43.365Z,10.47
2024-05-09T04:56:16.682Z,10.49
2024-05-09T04:56:49.807Z,10.51
2024-05-09T04:57:22.863Z,10.53
2024-05-09T04:57:55.879Z,10.55
2024-05-09T04:58:28.964Z,10.58
2024-05-09T04:59:02.106Z,10.60
2024-05-09T04:59:36.521Z,10.62
2024-05-09T05:00:14.768Z,10.63
2024-05-09T05:00:54.842Z,10.66
2024-05-09T05:01:28.083Z,10.68
2024-05-09T05:02:01.207Z,10.70
2024-05-09T05:02:34.503Z,10.72
2024-05-09T05:03:11.013Z,10.72
2024-05-09T05:03:46.379Z,10.75
2024-05-09T05:04:19.619Z,10.76
2024-05-09T05:04:52.764Z,10.78
2024-05-09T05:05:25.921Z,10.79
2024-05-09T05:05:59.004Z,10.80
2024-05-09T05:06:32.080Z,10.81
2024-05-09T05:07:05.197Z,10.82
2024-05-09T05:07:38.161Z,10.83
2024-05-09T05:08:13.131Z,10.85
2024-05-09T05:08:46.725Z,10.87
2024-05-09T05:09:19.872Z,10.87
2024-05-09T05:09:53.265Z,10.89
2024-05-09T05:10:33.765Z,10.90
2024-05-09T05:11:12.191Z,10.91
2024-05-09T05:11:45.342Z,10.92
2024-05-09T05:12:36.720Z,10.93
2024-05-09T05:13:20.768Z,10.94
2024-05-09T05:13:55.326Z,10.96
2024-05-09T05:14:28.430Z,10.97
2024-05-09T05:15:01.484Z,10.99
2024-05-09T05:15:34.544Z,11.00
2024-05-09T05:16:07.756Z,11.01
2024-05-09T05:16:40.803Z,11.04
2024-05-09T05:17:13.911Z,11.05
2024-05-09T05:17:47.255Z,11.08
2024-05-09T05:18:21.344Z,11.11
2024-05-09T05:18:54.811Z,11.13
2024-05-09T05:19:28.221Z,11.16
2024-05-09T05:20:01.614Z,11.20
2024-05-09T05:20:35.037Z,11.23
2024-05-09T05:21:08.225Z,11.26
2024-05-09T05:21:41.153Z,11.29
2024-05-09T05:22:14.199Z,11.32
2024-05-09T05:22:47.925Z,11.34
2024-05-09T05:23:22.407Z,11.37
2024-05-09T05:23:55.597Z,11.38
2024-05-09T05:24:28.780Z,11.40
2024-05-09T05:25:02.037Z,11.42
2024-05-09T05:25:35.126Z,11.45
2024-05-09T05:26:08.289Z,11.46
2024-05-09T05:26:41.570Z,11.48
2024-05-09T05:27:14.710Z,11.50
2024-05-09T05:27:47.760Z,11.52
2024-05-09T05:28:21.962Z,11.54
2024-05-09T05:28:55.307Z,11.55
2024-05-09T05:29:28.708Z,11.58
2024-05-09T05:30:01.700Z,11.61
2024-05-09T05:30:37.835Z,11.64
2024-05-09T05:31:11.087Z,11.66
2024-05-09T05:31:44.532Z,11.69
2024-05-09T05:32:17.839Z,11.72
2024-05-09T05:32:50.978Z,11.74
2024-05-09T05:33:24.292Z,11.77
2024-05-09T05:33:57.396Z,11.80
2024-05-09T05:34:31.505Z,11.83
2024-05-09T05:35:05.058Z,11.86
2024-05-09T05:35:38.369Z,11.88
2024-05-09T05:36:11.517Z,11.91
2024-05-09T05:36:44.605Z,11.93
2024-05-09T05:37:17.709Z,11.96
2024-05-09T05:37:50.724Z,11.97
2024-05-09T05:38:27.393Z,11.98
2024-05-09T05:39:01.526Z,12.00
2024-05-09T05:39:34.564Z,12.02
2024-05-09T05:40:11.888Z,12.04
2024-05-09T05:40:47.420Z,12.05
2024-05-09T05:41:20.590Z,12.06
2024-05-09T05:41:53.728Z,12.08
2024-05-09T05:42:26.635Z,12.10
2024-05-09T05:42:59.663Z,12.12
2024-05-09T05:43:32.609Z,12.14
2024-05-09T05:44:05.741Z,12.16
2024-05-09T05:44:38.842Z,12.18
2024-05-09T05:45:11.971Z,12.22
2024-05-09T05:45:46.013Z,12.24
2024-05-09T05:46:19.109Z,12.26
2024-05-09T05:46:52.039Z,12.29
2024-05-09T05:47:25.133Z,12.32
2024-05-09T05:47:58.435Z,12.35
2024-05-09T05:48:31.635Z,12.37
2024-05-09T05:49:04.830Z,12.39
2024-05-09T05:49:38.024Z,12.42
2024-05-09T05:50:20.760Z,12.44
2024-05-09T05:51:03.643Z,12.48
2024-05-09T05:51:37.462Z,12.49
2024-05-09T05:52:11.150Z,12.53
2024-05-09T05:52:44.190Z,12.55
2024-05-09T05:53:17.356Z,12.56
2024-05-09T05:53:50.500Z,12.58
2024-05-09T05:54:23.814Z,12.60
2024-05-09T05:54:56.906Z,12.63
2024-05-09T05:55:29.909Z,12.65
2024-05-09T05:56:03.004Z,12.68
2024-05-09T05:56:36.259Z,12.70
2024-05-09T05:57:09.220Z,12.73
2024-05-09T05:57:42.237Z,12.76
2024-05-09T05:58:15.366Z,12.78
2024-05-09T05:58:48.598Z,12.82
2024-05-09T05:59:24.071Z,12.84
2024-05-09T05:59:56.974Z,12.86
2024-05-09T06:00:37.675Z,12.89
2024-05-09T06:01:13.012Z,12.93
2024-05-09T06:01:46.272Z,12.95
2024-05-09T06:02:19.758Z,12.99
2024-05-09T06:02:53.240Z,13.01
2024-05-09T06:03:26.400Z,13.04
2024-05-09T06:03:59.655Z,13.07
2024-05-09T06:04:32.963Z,13.09
2024-05-09T06:05:06.416Z,13.11
2024-05-09T06:05:40.874Z,13.15
2024-05-09T06:06:14.297Z,13.18
2024-05-09T06:06:48.672Z,13.21
2024-05-09T06:07:22.025Z,13.24
2024-05-09T06:07:55.145Z,13.27
2024-05-09T06:08:30.150Z,13.30
2024-05-09T06:09:03.636Z,13.35
2024-05-09T06:09:36.738Z,13.37
2024-05-09T06:10:17.270Z,13.39
2024-05-09T06:10:54.867Z,13.41
2024-05-09T06:11:28.026Z,13.42
2024-05-09T06:12:01.303Z,13.44
2024-05-09T06:12:34.389Z,13.46
2024-05-09T06:13:10.436Z,13.48
2024-05-09T06:13:43.901Z,13.50
2024-05-09T06:14:17.359Z,13.53
2024-05-09T06:14:50.539Z,13.54
2024-05-09T06:15:23.564Z,13.56
2024-05-09T06:15:56.662Z,13.58
2024-05-09T06:16:29.784Z,13.60
2024-05-09T06:17:02.860Z,13.63
2024-05-09T06:17:36.128Z,13.66
2024-05-09T06:18:11.134Z,13.68
2024-05-09T06:18:46.855Z,13.70
2024-05-09T06:19:20.163Z,13.72
2024-05-09T06:19:53.601Z,13.74
2024-05-09T06:20:34.830Z,13.75
2024-05-09T06:21:10.474Z,13.78
2024-05-09T06:21:43.521Z,13.81
2024-05-09T06:22:16.480Z,13.82
2024-05-09T06:22:49.493Z,13.85
2024-05-09T06:23:22.484Z,13.87
2024-05-09T06:23:55.551Z,13.89
2024-05-09T06:24:28.717Z,13.91
2024-05-09T06:25:01.630Z,13.94
2024-05-09T06:25:35.750Z,13.96
2024-05-09T06:26:08.904Z,13.99
2024-05-09T06:26:42.727Z,14.02
2024-05-09T06:27:15.853Z,14.05
2024-05-09T06:27:49.592Z,14.08
2024-05-09T06:28:22.801Z,14.11
2024-05-09T06:28:55.754Z,14.15
2024-05-09T06:29:29.026Z,14.17
2024-05-09T06:30:02.350Z,14.20
2024-05-09T06:30:42.203Z,14.22
2024-05-09T06:31:16.432Z,14.24
2024-05-09T06:31:49.691Z,14.26
2024-05-09T06:32:23.095Z,14.28
2024-05-09T06:32:56.576Z,14.31
2024-05-09T06:33:30.195Z,14.32
2024-05-09T06:34:04.555Z,14.35
2024-05-09T06:34:37.729Z,14.37
2024-05-09T06:35:10.990Z,14.39
2024-05-09T06:35:46.772Z,14.41
2024-05-09T06:36:20.030Z,14.44
2024-05-09T06:36:53.116Z,14.47
2024-05-09T06:37:26.248Z,14.49
2024-05-09T06:37:59.318Z,14.52
2024-05-09T06:38:33.077Z,14.54
2024-05-09T06:39:06.266Z,14.57
2024-05-09T06:39:39.303Z,14.59
2024-05-09T06:40:45.419Z,14.66
2024-05-09T06:41:18.495Z,14.68
2024-05-09T06:41:52.111Z,14.70
2024-05-09T06:42:25.163Z,14.73
2024-05-09T06:42:59.162Z,14.75
2024-05-09T06:43:32.433Z,14.79
2024-05-09T06:44:05.579Z,14.81
2024-05-09T06:44:38.624Z,14.83
2024-05-09T06:45:11.728Z,14.86
2024-05-09T06:45:46.057Z,14.88
2024-05-09T06:46:19.141Z,14.91
2024-05-09T06:46:52.309Z,14.94
2024-05-09T06:47:25.393Z,14.96
2024-05-09T06:47:58.549Z,14.99
2024-05-09T06:48:31.848Z,15.00
2024-05-09T06:49:08.353Z,15.03
2024-05-09T06:49:41.635Z,15.07
2024-05-09T06:50:23.253Z,15.09
2024-05-09T06:50:57.922Z,15.12
2024-05-09T06:51:30.913Z,15.14
2024-05-09T06:52:04.268Z,15.17
2024-05-09T06:52:37.182Z,15.20
2024-05-09T06:53:10.584Z,15.22
2024-05-09T06:53:43.779Z,15.25
2024-05-09T06:54:18.315Z,15.28
2024-05-09T06:54:51.359Z,15.30
2024-05-09T06:55:24.429Z,15.32
2024-05-09T06:55:57.379Z,15.34
2024-05-09T06:56:30.290Z,15.36
2024-05-09T06:57:03.811Z,15.38
2024-05-09T06:57:38.388Z,15.41
2024-05-09T06:58:12.105Z,15.44
2024-05-09T06:58:45.024Z,15.46
2024-05-09T06:59:18.246Z,15.48
2024-05-09T06:59:51.253Z,15.51
2024-05-09T07:00:30.855Z,15.54
2024-05-09T07:01:11.322Z,15.57
2024-05-09T07:01:44.515Z,15.58
2024-05-09T07:02:17.542Z,15.60
2024-05-09T07:02:50.686Z,15.62
2024-05-09T07:03:24.053Z,15.62
2024-05-09T07:03:57.056Z,15.64
2024-05-09T07:04:30.612Z,15.65
2024-05-09T07:05:04.272Z,15.65
2024-05-09T07:05:37.677Z,15.66
2024-05-09T07:06:10.815Z,15.67
2024-05-09T07:06:43.878Z,15.68
2024-05-09T07:07:16.811Z,15.69
2024-05-09T07:07:49.996Z,15.70
2024-05-09T07:08:23.256Z,15.70
2024-05-09T07:08:56.199Z,15.71
2024-05-09T07:09:29.250Z,15.73
2024-05-09T07:10:02.159Z,15.74
2024-05-09T07:10:36.510Z,15.75
2024-05-09T07:11:10.237Z,15.77
2024-05-09T07:11:43.579Z,15.79
2024-05-09T07:12:16.901Z,15.81
2024-05-09T07:12:50.165Z,15.83
2024-05-09T07:13:23.463Z,15.85
2024-05-09T07:13:56.704Z,15.87
2024-05-09T07:14:30.339Z,15.87
2024-05-09T07:15:03.443Z,15.90
2024-05-09T07:15:36.586Z,15.91
2024-05-09T07:16:09.647Z,15.93
2024-05-09T07:16:42.631Z,15.94
2024-05-09T07:17:15.760Z,15.95
2024-05-09T07:17:49.006Z,15.97
2024-05-09T07:18:22.476Z,15.99
2024-05-09T07:18:56.119Z,16.01
2024-05-09T07:19:29.526Z,16.03
2024-05-09T07:20:02.651Z,16.04
2024-05-09T07:20:35.794Z,16.07
2024-05-09T07:21:08.784Z,16.08
2024-05-09T07:21:41.844Z,16.09
2024-05-09T07:22:14.777Z,16.09
2024-05-09T07:22:47.850Z,16.10
2024-05-09T07:23:21.075Z,16.11
2024-05-09T07:23:54.165Z,16.12
2024-05-09T07:24:27.146Z,16.12
2024-05-09T07:25:00.181Z,16.12
2024-05-09T07:25:33.406Z,16.13
2024-05-09T07:26:06.600Z,16.13
2024-05-09T07:26:39.692Z,16.15
2024-05-09T07:27:13.156Z,16.15
2024-05-09T07:27:46.397Z,16.17
2024-05-09T07:28:21.109Z,16.18